sensor_id;sensor_type;location;lat;lon;timestamp;P1;durP1;ratioP1;P2;durP2;ratioP2
11614;SDS011;5863;52.832;4.758;2022-07-17T00:01:11;4.85;;;1.60;;
11614;SDS011;5863;52.832;4.758;2022-07-17T00:03:39;3.88;;;2.10;;
11614;SDS011;5863;52.832;4.758;2022-07-17T00:06:06;4.15;;;1.80;;
11614;SDS011;5863;52.832;4.758;2022-07-17T00:08:32;4.18;;;1.70;;
11614;SDS011;5863;52.832;4.758;2022-07-17T00:11:07;3.25;;;1.65;;
11614;SDS011;5863;52.832;4.758;2022-07-17T00:13:34;3.22;;;1.42;;
11614;SDS011;5863;52.832;4.758;2022-07-17T00:16:02;3.92;;;1.85;;
11614;SDS011;5863;52.832;4.758;2022-07-17T00:18:29;2.70;;;1.73;;
11614;SDS011;5863;52.832;4.758;2022-07-17T00:20:56;6.20;;;2.00;;
11614;SDS011;5863;52.832;4.758;2022-07-17T00:23:23;2.92;;;1.70;;
11614;SDS011;5863;52.832;4.758;2022-07-17T00:25:52;3.30;;;2.08;;
11614;SDS011;5863;52.832;4.758;2022-07-17T00:28:20;3.70;;;1.77;;
11614;SDS011;5863;52.832;4.758;2022-07-17T00:30:46;4.35;;;1.80;;
11614;SDS011;5863;52.832;4.758;2022-07-17T00:33:14;3.53;;;2.20;;
11614;SDS011;5863;52.832;4.758;2022-07-17T00:35:40;4.10;;;1.98;;
11614;SDS011;5863;52.832;4.758;2022-07-17T00:38:07;2.65;;;1.58;;
11614;SDS011;5863;52.832;4.758;2022-07-17T00:40:35;5.78;;;1.98;;
11614;SDS011;5863;52.832;4.758;2022-07-17T00:43:02;7.63;;;2.10;;
11614;SDS011;5863;52.832;4.758;2022-07-17T00:45:30;8.15;;;2.08;;
11614;SDS011;5863;52.832;4.758;2022-07-17T00:47:58;6.43;;;1.90;;
11614;SDS011;5863;52.832;4.758;2022-07-17T00:50:27;3.13;;;1.80;;
11614;SDS011;5863;52.832;4.758;2022-07-17T00:52:56;3.45;;;2.00;;
11614;SDS011;5863;52.832;4.758;2022-07-17T00:55:24;3.53;;;2.00;;
11614;SDS011;5863;52.832;4.758;2022-07-17T00:57:51;2.25;;;1.90;;
11614;SDS011;5863;52.832;4.758;2022-07-17T01:00:21;3.17;;;2.15;;
11614;SDS011;5863;52.832;4.758;2022-07-17T01:02:50;3.20;;;2.10;;
11614;SDS011;5863;52.832;4.758;2022-07-17T01:05:18;2.72;;;2.00;;
11614;SDS011;5863;52.832;4.758;2022-07-17T01:07:47;2.75;;;2.10;;
11614;SDS011;5863;52.832;4.758;2022-07-17T01:10:14;4.05;;;2.15;;
11614;SDS011;5863;52.832;4.758;2022-07-17T01:12:42;3.95;;;2.25;;
11614;SDS011;5863;52.832;4.758;2022-07-17T01:15:10;3.00;;;1.90;;
11614;SDS011;5863;52.832;4.758;2022-07-17T01:17:37;2.50;;;2.00;;
11614;SDS011;5863;52.832;4.758;2022-07-17T01:20:06;3.88;;;2.10;;
11614;SDS011;5863;52.832;4.758;2022-07-17T01:22:40;4.80;;;2.20;;
11614;SDS011;5863;52.832;4.758;2022-07-17T01:25:07;3.00;;;1.95;;
11614;SDS011;5863;52.832;4.758;2022-07-17T01:27:35;4.18;;;2.30;;
11614;SDS011;5863;52.832;4.758;2022-07-17T01:30:02;5.32;;;2.40;;
11614;SDS011;5863;52.832;4.758;2022-07-17T01:32:32;4.78;;;2.15;;
11614;SDS011;5863;52.832;4.758;2022-07-17T01:34:59;2.85;;;1.95;;
11614;SDS011;5863;52.832;4.758;2022-07-17T01:37:27;3.58;;;2.28;;
11614;SDS011;5863;52.832;4.758;2022-07-17T01:39:55;5.43;;;2.40;;
11614;SDS011;5863;52.832;4.758;2022-07-17T01:42:22;4.25;;;2.30;;
11614;SDS011;5863;52.832;4.758;2022-07-17T01:44:51;4.80;;;2.15;;
11614;SDS011;5863;52.832;4.758;2022-07-17T01:47:19;3.13;;;2.00;;
11614;SDS011;5863;52.832;4.758;2022-07-17T01:49:46;4.72;;;2.22;;
11614;SDS011;5863;52.832;4.758;2022-07-17T01:52:14;3.05;;;2.40;;
11614;SDS011;5863;52.832;4.758;2022-07-17T01:54:44;2.78;;;2.10;;
11614;SDS011;5863;52.832;4.758;2022-07-17T01:57:12;4.03;;;2.33;;
11614;SDS011;5863;52.832;4.758;2022-07-17T01:59:40;4.82;;;2.35;;
11614;SDS011;5863;52.832;4.758;2022-07-17T02:02:07;2.85;;;2.05;;
11614;SDS011;5863;52.832;4.758;2022-07-17T02:04:35;4.90;;;2.30;;
11614;SDS011;5863;52.832;4.758;2022-07-17T02:07:03;6.32;;;2.70;;
11614;SDS011;5863;52.832;4.758;2022-07-17T02:09:30;6.65;;;2.70;;
11614;SDS011;5863;52.832;4.758;2022-07-17T02:11:57;5.05;;;2.55;;
11614;SDS011;5863;52.832;4.758;2022-07-17T02:14:25;3.03;;;2.63;;
11614;SDS011;5863;52.832;4.758;2022-07-17T02:16:52;2.92;;;2.72;;
11614;SDS011;5863;52.832;4.758;2022-07-17T02:19:19;2.88;;;2.58;;
11614;SDS011;5863;52.832;4.758;2022-07-17T02:21:48;5.63;;;3.08;;
11614;SDS011;5863;52.832;4.758;2022-07-17T02:24:21;5.95;;;3.22;;
11614;SDS011;5863;52.832;4.758;2022-07-17T02:27:01;5.78;;;3.13;;
11614;SDS011;5863;52.832;4.758;2022-07-17T02:29:29;4.80;;;2.83;;
11614;SDS011;5863;52.832;4.758;2022-07-17T02:31:56;5.85;;;2.92;;
11614;SDS011;5863;52.832;4.758;2022-07-17T02:34:22;4.25;;;3.30;;
11614;SDS011;5863;52.832;4.758;2022-07-17T02:36:49;6.95;;;3.53;;
11614;SDS011;5863;52.832;4.758;2022-07-17T02:39:16;4.65;;;2.85;;
11614;SDS011;5863;52.832;4.758;2022-07-17T02:44:12;6.78;;;3.17;;
11614;SDS011;5863;52.832;4.758;2022-07-17T02:46:40;4.30;;;3.00;;
11614;SDS011;5863;52.832;4.758;2022-07-17T02:49:07;6.20;;;3.30;;
11614;SDS011;5863;52.832;4.758;2022-07-17T02:51:35;5.22;;;3.40;;
11614;SDS011;5863;52.832;4.758;2022-07-17T02:54:01;6.05;;;3.08;;
11614;SDS011;5863;52.832;4.758;2022-07-17T02:56:28;8.85;;;3.47;;
11614;SDS011;5863;52.832;4.758;2022-07-17T02:58:55;7.35;;;3.40;;
11614;SDS011;5863;52.832;4.758;2022-07-17T03:01:21;8.10;;;3.53;;
11614;SDS011;5863;52.832;4.758;2022-07-17T03:03:51;5.00;;;3.20;;
11614;SDS011;5863;52.832;4.758;2022-07-17T03:06:18;4.90;;;3.00;;
11614;SDS011;5863;52.832;4.758;2022-07-17T03:08:45;4.22;;;2.83;;
11614;SDS011;5863;52.832;4.758;2022-07-17T03:11:12;3.50;;;2.83;;
11614;SDS011;5863;52.832;4.758;2022-07-17T03:13:38;4.63;;;2.72;;
11614;SDS011;5863;52.832;4.758;2022-07-17T03:16:05;7.72;;;2.90;;
11614;SDS011;5863;52.832;4.758;2022-07-17T03:18:38;4.60;;;2.88;;
11614;SDS011;5863;52.832;4.758;2022-07-17T03:21:06;4.43;;;3.30;;
11614;SDS011;5863;52.832;4.758;2022-07-17T03:23:33;6.65;;;3.10;;
11614;SDS011;5863;52.832;4.758;2022-07-17T03:25:59;7.47;;;3.10;;
11614;SDS011;5863;52.832;4.758;2022-07-17T03:28:26;4.18;;;3.05;;
11614;SDS011;5863;52.832;4.758;2022-07-17T03:30:53;4.88;;;3.08;;
11614;SDS011;5863;52.832;4.758;2022-07-17T03:33:20;4.90;;;2.90;;
11614;SDS011;5863;52.832;4.758;2022-07-17T03:35:47;3.55;;;2.90;;
11614;SDS011;5863;52.832;4.758;2022-07-17T03:38:15;3.92;;;2.60;;
11614;SDS011;5863;52.832;4.758;2022-07-17T03:40:43;3.97;;;2.72;;
11614;SDS011;5863;52.832;4.758;2022-07-17T03:43:10;5.32;;;2.70;;
11614;SDS011;5863;52.832;4.758;2022-07-17T03:45:38;6.25;;;2.95;;
11614;SDS011;5863;52.832;4.758;2022-07-17T03:48:05;4.90;;;3.13;;
11614;SDS011;5863;52.832;4.758;2022-07-17T03:50:32;5.63;;;2.53;;
11614;SDS011;5863;52.832;4.758;2022-07-17T03:52:59;5.57;;;2.88;;
11614;SDS011;5863;52.832;4.758;2022-07-17T03:55:27;3.85;;;2.90;;
11614;SDS011;5863;52.832;4.758;2022-07-17T03:57:54;6.05;;;2.70;;
11614;SDS011;5863;52.832;4.758;2022-07-17T04:00:21;5.40;;;2.70;;
11614;SDS011;5863;52.832;4.758;2022-07-17T04:02:47;4.72;;;3.20;;
11614;SDS011;5863;52.832;4.758;2022-07-17T04:05:14;4.15;;;2.88;;
11614;SDS011;5863;52.832;4.758;2022-07-17T04:07:41;5.13;;;2.75;;
11614;SDS011;5863;52.832;4.758;2022-07-17T04:10:08;5.95;;;2.90;;
11614;SDS011;5863;52.832;4.758;2022-07-17T04:12:38;4.30;;;2.90;;
11614;SDS011;5863;52.832;4.758;2022-07-17T04:15:05;3.08;;;2.38;;
11614;SDS011;5863;52.832;4.758;2022-07-17T04:17:34;6.15;;;3.17;;
11614;SDS011;5863;52.832;4.758;2022-07-17T04:20:16;4.72;;;3.00;;
11614;SDS011;5863;52.832;4.758;2022-07-17T04:22:42;5.88;;;3.13;;
11614;SDS011;5863;52.832;4.758;2022-07-17T04:25:09;6.35;;;3.40;;
11614;SDS011;5863;52.832;4.758;2022-07-17T04:27:36;8.85;;;3.00;;
11614;SDS011;5863;52.832;4.758;2022-07-17T04:30:05;5.53;;;2.85;;
11614;SDS011;5863;52.832;4.758;2022-07-17T04:32:32;4.00;;;2.83;;
11614;SDS011;5863;52.832;4.758;2022-07-17T04:34:59;4.90;;;2.88;;
11614;SDS011;5863;52.832;4.758;2022-07-17T04:37:26;6.32;;;2.90;;
11614;SDS011;5863;52.832;4.758;2022-07-17T04:39:52;4.40;;;2.70;;
11614;SDS011;5863;52.832;4.758;2022-07-17T04:42:19;4.57;;;2.67;;
11614;SDS011;5863;52.832;4.758;2022-07-17T04:44:46;3.72;;;2.70;;
11614;SDS011;5863;52.832;4.758;2022-07-17T04:47:14;3.22;;;2.22;;
11614;SDS011;5863;52.832;4.758;2022-07-17T04:49:40;8.25;;;2.90;;
11614;SDS011;5863;52.832;4.758;2022-07-17T04:52:07;5.38;;;2.90;;
11614;SDS011;5863;52.832;4.758;2022-07-17T04:54:34;4.32;;;2.30;;
11614;SDS011;5863;52.832;4.758;2022-07-17T04:57:01;2.92;;;2.30;;
11614;SDS011;5863;52.832;4.758;2022-07-17T04:59:28;4.57;;;2.42;;
11614;SDS011;5863;52.832;4.758;2022-07-17T05:01:55;4.10;;;2.70;;
11614;SDS011;5863;52.832;4.758;2022-07-17T05:04:23;3.28;;;2.50;;
11614;SDS011;5863;52.832;4.758;2022-07-17T05:06:50;6.25;;;2.80;;
11614;SDS011;5863;52.832;4.758;2022-07-17T05:09:16;6.43;;;2.47;;
11614;SDS011;5863;52.832;4.758;2022-07-17T05:11:43;5.00;;;2.58;;
11614;SDS011;5863;52.832;4.758;2022-07-17T05:14:10;4.43;;;2.72;;
11614;SDS011;5863;52.832;4.758;2022-07-17T05:16:37;3.50;;;2.70;;
11614;SDS011;5863;52.832;4.758;2022-07-17T05:19:04;6.25;;;2.60;;
11614;SDS011;5863;52.832;4.758;2022-07-17T05:21:32;5.78;;;2.80;;
11614;SDS011;5863;52.832;4.758;2022-07-17T05:23:59;4.40;;;2.15;;
11614;SDS011;5863;52.832;4.758;2022-07-17T05:26:26;3.20;;;2.50;;
11614;SDS011;5863;52.832;4.758;2022-07-17T05:28:53;4.35;;;2.42;;
11614;SDS011;5863;52.832;4.758;2022-07-17T05:31:19;3.83;;;2.55;;
11614;SDS011;5863;52.832;4.758;2022-07-17T05:33:46;6.45;;;2.88;;
11614;SDS011;5863;52.832;4.758;2022-07-17T05:36:13;6.88;;;2.50;;
11614;SDS011;5863;52.832;4.758;2022-07-17T05:38:42;4.25;;;2.30;;
11614;SDS011;5863;52.832;4.758;2022-07-17T05:41:08;7.95;;;2.45;;
11614;SDS011;5863;52.832;4.758;2022-07-17T05:43:35;3.22;;;2.15;;
11614;SDS011;5863;52.832;4.758;2022-07-17T05:46:02;2.78;;;2.10;;
11614;SDS011;5863;52.832;4.758;2022-07-17T05:48:29;3.05;;;2.10;;
11614;SDS011;5863;52.832;4.758;2022-07-17T05:50:57;1.88;;;1.40;;
11614;SDS011;5863;52.832;4.758;2022-07-17T05:53:24;3.72;;;1.70;;
11614;SDS011;5863;52.832;4.758;2022-07-17T05:55:52;3.63;;;1.60;;
11614;SDS011;5863;52.832;4.758;2022-07-17T05:58:19;3.30;;;1.58;;
11614;SDS011;5863;52.832;4.758;2022-07-17T06:00:46;2.35;;;1.33;;
11614;SDS011;5863;52.832;4.758;2022-07-17T06:03:15;2.13;;;1.30;;
11614;SDS011;5863;52.832;4.758;2022-07-17T06:05:42;5.28;;;1.50;;
11614;SDS011;5863;52.832;4.758;2022-07-17T06:08:09;3.65;;;1.70;;
11614;SDS011;5863;52.832;4.758;2022-07-17T06:10:36;4.57;;;1.55;;
11614;SDS011;5863;52.832;4.758;2022-07-17T06:13:04;2.65;;;1.20;;
11614;SDS011;5863;52.832;4.758;2022-07-17T06:15:32;3.85;;;1.25;;
11614;SDS011;5863;52.832;4.758;2022-07-17T06:17:59;3.45;;;1.30;;
11614;SDS011;5863;52.832;4.758;2022-07-17T06:20:26;2.10;;;0.90;;
11614;SDS011;5863;52.832;4.758;2022-07-17T06:22:53;4.97;;;1.20;;
11614;SDS011;5863;52.832;4.758;2022-07-17T06:25:20;1.98;;;1.10;;
11614;SDS011;5863;52.832;4.758;2022-07-17T06:27:47;4.72;;;1.35;;
11614;SDS011;5863;52.832;4.758;2022-07-17T06:30:15;2.65;;;1.30;;
11614;SDS011;5863;52.832;4.758;2022-07-17T06:32:43;1.88;;;1.00;;
11614;SDS011;5863;52.832;4.758;2022-07-17T06:35:10;3.40;;;1.00;;
11614;SDS011;5863;52.832;4.758;2022-07-17T06:37:37;3.72;;;1.20;;
11614;SDS011;5863;52.832;4.758;2022-07-17T06:40:04;1.95;;;1.10;;
11614;SDS011;5863;52.832;4.758;2022-07-17T06:42:32;1.90;;;0.90;;
11614;SDS011;5863;52.832;4.758;2022-07-17T06:44:59;3.17;;;1.17;;
11614;SDS011;5863;52.832;4.758;2022-07-17T06:47:27;2.22;;;0.90;;
11614;SDS011;5863;52.832;4.758;2022-07-17T06:49:54;1.63;;;0.95;;
11614;SDS011;5863;52.832;4.758;2022-07-17T06:52:21;3.88;;;1.30;;
11614;SDS011;5863;52.832;4.758;2022-07-17T06:54:48;1.65;;;0.82;;
11614;SDS011;5863;52.832;4.758;2022-07-17T06:57:14;2.05;;;0.93;;
11614;SDS011;5863;52.832;4.758;2022-07-17T06:59:41;3.13;;;1.20;;
11614;SDS011;5863;52.832;4.758;2022-07-17T07:02:08;1.15;;;0.88;;
11614;SDS011;5863;52.832;4.758;2022-07-17T07:04:36;2.85;;;1.10;;
11614;SDS011;5863;52.832;4.758;2022-07-17T07:07:03;2.38;;;1.17;;
11614;SDS011;5863;52.832;4.758;2022-07-17T07:09:29;2.85;;;1.35;;
11614;SDS011;5863;52.832;4.758;2022-07-17T07:11:58;3.10;;;1.20;;
11614;SDS011;5863;52.832;4.758;2022-07-17T07:14:24;2.78;;;1.10;;
11614;SDS011;5863;52.832;4.758;2022-07-17T07:16:51;6.07;;;1.55;;
11614;SDS011;5863;52.832;4.758;2022-07-17T07:19:18;4.55;;;1.30;;
11614;SDS011;5863;52.832;4.758;2022-07-17T07:21:46;2.10;;;1.27;;
11614;SDS011;5863;52.832;4.758;2022-07-17T07:24:13;2.42;;;1.20;;
11614;SDS011;5863;52.832;4.758;2022-07-17T07:26:39;1.23;;;1.05;;
11614;SDS011;5863;52.832;4.758;2022-07-17T07:29:06;2.63;;;1.40;;
11614;SDS011;5863;52.832;4.758;2022-07-17T07:31:34;1.98;;;1.20;;
11614;SDS011;5863;52.832;4.758;2022-07-17T07:34:00;3.58;;;1.55;;
11614;SDS011;5863;52.832;4.758;2022-07-17T07:36:28;6.65;;;1.67;;
11614;SDS011;5863;52.832;4.758;2022-07-17T07:38:56;3.95;;;1.50;;
11614;SDS011;5863;52.832;4.758;2022-07-17T07:41:23;2.50;;;0.85;;
11614;SDS011;5863;52.832;4.758;2022-07-17T07:43:49;2.92;;;1.45;;
11614;SDS011;5863;52.832;4.758;2022-07-17T07:46:16;2.53;;;1.10;;
11614;SDS011;5863;52.832;4.758;2022-07-17T07:48:43;3.33;;;1.30;;
11614;SDS011;5863;52.832;4.758;2022-07-17T07:51:10;1.42;;;1.10;;
11614;SDS011;5863;52.832;4.758;2022-07-17T07:53:37;2.92;;;1.40;;
11614;SDS011;5863;52.832;4.758;2022-07-17T07:56:05;2.05;;;1.40;;
11614;SDS011;5863;52.832;4.758;2022-07-17T07:58:32;1.38;;;1.10;;
11614;SDS011;5863;52.832;4.758;2022-07-17T08:01:02;1.45;;;1.00;;
11614;SDS011;5863;52.832;4.758;2022-07-17T08:03:29;3.40;;;1.15;;
11614;SDS011;5863;52.832;4.758;2022-07-17T08:05:56;2.17;;;1.15;;
11614;SDS011;5863;52.832;4.758;2022-07-17T08:08:22;2.00;;;1.20;;
11614;SDS011;5863;52.832;4.758;2022-07-17T08:10:49;2.20;;;1.48;;
11614;SDS011;5863;52.832;4.758;2022-07-17T08:13:18;3.30;;;1.65;;
11614;SDS011;5863;52.832;4.758;2022-07-17T08:15:44;1.45;;;1.08;;
11614;SDS011;5863;52.832;4.758;2022-07-17T08:18:11;1.60;;;1.30;;
11614;SDS011;5863;52.832;4.758;2022-07-17T08:20:38;2.75;;;1.50;;
11614;SDS011;5863;52.832;4.758;2022-07-17T08:23:05;3.17;;;1.52;;
11614;SDS011;5863;52.832;4.758;2022-07-17T08:25:36;3.80;;;1.75;;
11614;SDS011;5863;52.832;4.758;2022-07-17T08:28:03;1.55;;;1.20;;
11614;SDS011;5863;52.832;4.758;2022-07-17T08:30:32;3.72;;;1.58;;
11614;SDS011;5863;52.832;4.758;2022-07-17T08:33:01;3.58;;;1.50;;
11614;SDS011;5863;52.832;4.758;2022-07-17T08:35:28;2.30;;;1.63;;
11614;SDS011;5863;52.832;4.758;2022-07-17T08:37:55;3.33;;;1.20;;
11614;SDS011;5863;52.832;4.758;2022-07-17T08:40:23;1.27;;;1.15;;
11614;SDS011;5863;52.832;4.758;2022-07-17T08:42:51;2.58;;;1.48;;
11614;SDS011;5863;52.832;4.758;2022-07-17T08:45:18;1.65;;;1.27;;
11614;SDS011;5863;52.832;4.758;2022-07-17T08:47:46;4.38;;;1.63;;
11614;SDS011;5863;52.832;4.758;2022-07-17T08:50:15;2.33;;;1.40;;
11614;SDS011;5863;52.832;4.758;2022-07-17T08:52:47;2.42;;;1.52;;
11614;SDS011;5863;52.832;4.758;2022-07-17T08:55:15;3.35;;;1.35;;
11614;SDS011;5863;52.832;4.758;2022-07-17T08:57:45;2.40;;;1.40;;
11614;SDS011;5863;52.832;4.758;2022-07-17T09:00:12;2.50;;;1.25;;
11614;SDS011;5863;52.832;4.758;2022-07-17T09:02:52;3.00;;;1.45;;
11614;SDS011;5863;52.832;4.758;2022-07-17T09:05:21;2.22;;;1.15;;
11614;SDS011;5863;52.832;4.758;2022-07-17T09:07:48;4.55;;;1.52;;
11614;SDS011;5863;52.832;4.758;2022-07-17T09:10:15;3.35;;;1.50;;
11614;SDS011;5863;52.832;4.758;2022-07-17T09:12:42;1.92;;;1.42;;
11614;SDS011;5863;52.832;4.758;2022-07-17T09:15:15;2.88;;;1.50;;
11614;SDS011;5863;52.832;4.758;2022-07-17T09:17:49;3.97;;;1.50;;
11614;SDS011;5863;52.832;4.758;2022-07-17T09:20:18;4.10;;;1.80;;
11614;SDS011;5863;52.832;4.758;2022-07-17T09:22:54;2.35;;;1.50;;
11614;SDS011;5863;52.832;4.758;2022-07-17T09:25:31;4.13;;;1.50;;
11614;SDS011;5863;52.832;4.758;2022-07-17T09:27:59;3.22;;;1.50;;
11614;SDS011;5863;52.832;4.758;2022-07-17T09:30:27;4.05;;;1.50;;
11614;SDS011;5863;52.832;4.758;2022-07-17T09:32:54;2.22;;;1.30;;
11614;SDS011;5863;52.832;4.758;2022-07-17T09:35:22;2.80;;;1.75;;
11614;SDS011;5863;52.832;4.758;2022-07-17T09:37:51;4.72;;;1.95;;
11614;SDS011;5863;52.832;4.758;2022-07-17T09:40:18;3.92;;;1.70;;
11614;SDS011;5863;52.832;4.758;2022-07-17T09:43:00;5.97;;;2.20;;
11614;SDS011;5863;52.832;4.758;2022-07-17T09:45:27;3.28;;;1.85;;
11614;SDS011;5863;52.832;4.758;2022-07-17T09:47:54;3.30;;;1.60;;
11614;SDS011;5863;52.832;4.758;2022-07-17T09:50:23;2.13;;;1.40;;
11614;SDS011;5863;52.832;4.758;2022-07-17T09:52:53;2.00;;;1.60;;
11614;SDS011;5863;52.832;4.758;2022-07-17T09:55:22;3.17;;;1.70;;
11614;SDS011;5863;52.832;4.758;2022-07-17T09:57:54;3.00;;;1.40;;
11614;SDS011;5863;52.832;4.758;2022-07-17T10:00:22;5.22;;;1.90;;
11614;SDS011;5863;52.832;4.758;2022-07-17T10:02:49;2.88;;;1.75;;
11614;SDS011;5863;52.832;4.758;2022-07-17T10:05:16;3.85;;;1.77;;
11614;SDS011;5863;52.832;4.758;2022-07-17T10:07:45;1.63;;;1.48;;
11614;SDS011;5863;52.832;4.758;2022-07-17T10:10:13;3.33;;;1.75;;
11614;SDS011;5863;52.832;4.758;2022-07-17T10:12:42;3.58;;;1.75;;
11614;SDS011;5863;52.832;4.758;2022-07-17T10:15:11;5.40;;;1.88;;
11614;SDS011;5863;52.832;4.758;2022-07-17T10:17:38;3.17;;;1.73;;
11614;SDS011;5863;52.832;4.758;2022-07-17T10:20:06;2.97;;;1.70;;
11614;SDS011;5863;52.832;4.758;2022-07-17T10:22:46;4.85;;;1.40;;
11614;SDS011;5863;52.832;4.758;2022-07-17T10:25:13;4.32;;;1.70;;
11614;SDS011;5863;52.832;4.758;2022-07-17T10:27:48;2.55;;;1.50;;
11614;SDS011;5863;52.832;4.758;2022-07-17T10:30:19;3.00;;;1.50;;
11614;SDS011;5863;52.832;4.758;2022-07-17T10:32:52;1.42;;;1.20;;
11614;SDS011;5863;52.832;4.758;2022-07-17T10:35:21;1.42;;;1.23;;
11614;SDS011;5863;52.832;4.758;2022-07-17T10:37:50;2.65;;;1.50;;
11614;SDS011;5863;52.832;4.758;2022-07-17T10:40:17;4.30;;;1.83;;
11614;SDS011;5863;52.832;4.758;2022-07-17T10:42:47;3.28;;;1.58;;
11614;SDS011;5863;52.832;4.758;2022-07-17T10:45:21;5.05;;;2.08;;
11614;SDS011;5863;52.832;4.758;2022-07-17T10:47:51;2.47;;;1.63;;
11614;SDS011;5863;52.832;4.758;2022-07-17T10:50:20;5.05;;;1.70;;
11614;SDS011;5863;52.832;4.758;2022-07-17T10:53:01;2.05;;;1.60;;
11614;SDS011;5863;52.832;4.758;2022-07-17T10:55:35;6.63;;;1.65;;
11614;SDS011;5863;52.832;4.758;2022-07-17T10:58:03;2.38;;;1.48;;
11614;SDS011;5863;52.832;4.758;2022-07-17T11:00:39;4.18;;;1.70;;
11614;SDS011;5863;52.832;4.758;2022-07-17T11:03:09;4.63;;;1.60;;
11614;SDS011;5863;52.832;4.758;2022-07-17T11:05:37;4.50;;;1.48;;
11614;SDS011;5863;52.832;4.758;2022-07-17T11:08:05;3.75;;;1.50;;
11614;SDS011;5863;52.832;4.758;2022-07-17T11:10:34;2.47;;;1.60;;
11614;SDS011;5863;52.832;4.758;2022-07-17T11:13:08;3.00;;;1.70;;
11614;SDS011;5863;52.832;4.758;2022-07-17T11:15:40;3.53;;;1.75;;
11614;SDS011;5863;52.832;4.758;2022-07-17T11:18:12;2.08;;;1.50;;
11614;SDS011;5863;52.832;4.758;2022-07-17T11:20:50;2.83;;;1.52;;
11614;SDS011;5863;52.832;4.758;2022-07-17T11:23:21;4.55;;;1.60;;
11614;SDS011;5863;52.832;4.758;2022-07-17T11:25:53;5.75;;;1.70;;
11614;SDS011;5863;52.832;4.758;2022-07-17T11:28:28;3.83;;;1.67;;
11614;SDS011;5863;52.832;4.758;2022-07-17T11:30:56;3.90;;;1.48;;
11614;SDS011;5863;52.832;4.758;2022-07-17T11:33:23;2.40;;;1.38;;
11614;SDS011;5863;52.832;4.758;2022-07-17T11:35:49;7.13;;;1.98;;
11614;SDS011;5863;52.832;4.758;2022-07-17T11:38:23;3.63;;;1.70;;
11614;SDS011;5863;52.832;4.758;2022-07-17T11:40:51;3.22;;;1.75;;
11614;SDS011;5863;52.832;4.758;2022-07-17T11:43:18;2.58;;;1.75;;
11614;SDS011;5863;52.832;4.758;2022-07-17T11:45:45;4.82;;;1.52;;
11614;SDS011;5863;52.832;4.758;2022-07-17T11:48:12;3.22;;;1.52;;
11614;SDS011;5863;52.832;4.758;2022-07-17T11:50:39;2.78;;;1.40;;
11614;SDS011;5863;52.832;4.758;2022-07-17T11:53:06;3.00;;;1.70;;
11614;SDS011;5863;52.832;4.758;2022-07-17T11:55:38;2.83;;;1.80;;
11614;SDS011;5863;52.832;4.758;2022-07-17T11:58:06;2.58;;;1.65;;
11614;SDS011;5863;52.832;4.758;2022-07-17T12:00:33;4.90;;;1.50;;
11614;SDS011;5863;52.832;4.758;2022-07-17T12:03:00;3.00;;;1.52;;
11614;SDS011;5863;52.832;4.758;2022-07-17T12:05:28;2.85;;;1.63;;
11614;SDS011;5863;52.832;4.758;2022-07-17T12:07:57;1.80;;;1.50;;
11614;SDS011;5863;52.832;4.758;2022-07-17T12:10:24;2.25;;;1.45;;
11614;SDS011;5863;52.832;4.758;2022-07-17T12:12:55;2.67;;;1.60;;
11614;SDS011;5863;52.832;4.758;2022-07-17T12:15:33;2.15;;;1.40;;
11614;SDS011;5863;52.832;4.758;2022-07-17T12:18:01;1.67;;;1.40;;
11614;SDS011;5863;52.832;4.758;2022-07-17T12:20:39;3.22;;;1.50;;
11614;SDS011;5863;52.832;4.758;2022-07-17T12:23:08;3.20;;;1.67;;
11614;SDS011;5863;52.832;4.758;2022-07-17T12:25:35;1.40;;;1.30;;
11614;SDS011;5863;52.832;4.758;2022-07-17T12:28:03;2.40;;;1.50;;
11614;SDS011;5863;52.832;4.758;2022-07-17T12:30:30;2.47;;;1.50;;
11614;SDS011;5863;52.832;4.758;2022-07-17T12:32:57;2.08;;;1.60;;
11614;SDS011;5863;52.832;4.758;2022-07-17T12:35:24;5.78;;;1.80;;
11614;SDS011;5863;52.832;4.758;2022-07-17T12:37:51;4.15;;;1.80;;
11614;SDS011;5863;52.832;4.758;2022-07-17T12:40:18;2.78;;;1.73;;
11614;SDS011;5863;52.832;4.758;2022-07-17T12:42:48;1.63;;;1.40;;
11614;SDS011;5863;52.832;4.758;2022-07-17T12:45:16;2.33;;;1.90;;
11614;SDS011;5863;52.832;4.758;2022-07-17T12:47:43;2.08;;;1.70;;
11614;SDS011;5863;52.832;4.758;2022-07-17T12:50:09;3.22;;;1.65;;
11614;SDS011;5863;52.832;4.758;2022-07-17T12:52:36;3.78;;;1.80;;
11614;SDS011;5863;52.832;4.758;2022-07-17T12:55:03;4.03;;;1.92;;
11614;SDS011;5863;52.832;4.758;2022-07-17T12:57:31;2.58;;;1.98;;
11614;SDS011;5863;52.832;4.758;2022-07-17T12:59:58;2.65;;;1.90;;
11614;SDS011;5863;52.832;4.758;2022-07-17T13:02:26;1.98;;;1.63;;
11614;SDS011;5863;52.832;4.758;2022-07-17T13:04:53;5.63;;;1.90;;
11614;SDS011;5863;52.832;4.758;2022-07-17T13:07:19;2.28;;;1.67;;
11614;SDS011;5863;52.832;4.758;2022-07-17T13:09:47;5.47;;;1.50;;
11614;SDS011;5863;52.832;4.758;2022-07-17T13:12:14;4.43;;;1.65;;
11614;SDS011;5863;52.832;4.758;2022-07-17T13:14:40;2.35;;;1.33;;
11614;SDS011;5863;52.832;4.758;2022-07-17T13:17:07;3.40;;;1.63;;
11614;SDS011;5863;52.832;4.758;2022-07-17T13:19:35;4.05;;;1.55;;
11614;SDS011;5863;52.832;4.758;2022-07-17T13:22:02;2.50;;;1.55;;
11614;SDS011;5863;52.832;4.758;2022-07-17T13:24:29;2.80;;;1.50;;
11614;SDS011;5863;52.832;4.758;2022-07-17T13:26:56;4.40;;;1.70;;
11614;SDS011;5863;52.832;4.758;2022-07-17T13:29:23;1.98;;;1.65;;
11614;SDS011;5863;52.832;4.758;2022-07-17T13:31:51;2.15;;;1.48;;
11614;SDS011;5863;52.832;4.758;2022-07-17T13:34:18;3.45;;;1.73;;
11614;SDS011;5863;52.832;4.758;2022-07-17T13:36:46;1.83;;;1.40;;
11614;SDS011;5863;52.832;4.758;2022-07-17T13:39:13;2.03;;;1.50;;
11614;SDS011;5863;52.832;4.758;2022-07-17T13:41:40;2.00;;;1.40;;
11614;SDS011;5863;52.832;4.758;2022-07-17T13:44:07;4.03;;;1.77;;
11614;SDS011;5863;52.832;4.758;2022-07-17T13:46:34;3.25;;;1.60;;
11614;SDS011;5863;52.832;4.758;2022-07-17T13:49:01;4.93;;;1.30;;
11614;SDS011;5863;52.832;4.758;2022-07-17T13:51:28;2.80;;;1.27;;
11614;SDS011;5863;52.832;4.758;2022-07-17T13:53:57;3.13;;;1.75;;
11614;SDS011;5863;52.832;4.758;2022-07-17T13:56:25;2.22;;;1.33;;
11614;SDS011;5863;52.832;4.758;2022-07-17T13:58:52;2.35;;;1.50;;
11614;SDS011;5863;52.832;4.758;2022-07-17T14:01:19;2.05;;;1.27;;
11614;SDS011;5863;52.832;4.758;2022-07-17T14:03:47;1.90;;;1.52;;
11614;SDS011;5863;52.832;4.758;2022-07-17T14:06:14;1.95;;;1.42;;
11614;SDS011;5863;52.832;4.758;2022-07-17T14:08:41;1.70;;;1.27;;
11614;SDS011;5863;52.832;4.758;2022-07-17T14:11:10;1.77;;;1.30;;
11614;SDS011;5863;52.832;4.758;2022-07-17T14:13:37;2.63;;;1.73;;
11614;SDS011;5863;52.832;4.758;2022-07-17T14:16:05;2.40;;;1.52;;
11614;SDS011;5863;52.832;4.758;2022-07-17T14:18:32;4.88;;;1.50;;
11614;SDS011;5863;52.832;4.758;2022-07-17T14:20:59;3.95;;;1.80;;
11614;SDS011;5863;52.832;4.758;2022-07-17T14:23:26;2.28;;;1.30;;
11614;SDS011;5863;52.832;4.758;2022-07-17T14:25:53;4.47;;;1.60;;
11614;SDS011;5863;52.832;4.758;2022-07-17T14:28:21;3.08;;;1.30;;
11614;SDS011;5863;52.832;4.758;2022-07-17T14:30:47;2.10;;;1.50;;
11614;SDS011;5863;52.832;4.758;2022-07-17T14:33:14;2.35;;;1.40;;
11614;SDS011;5863;52.832;4.758;2022-07-17T14:35:41;2.83;;;1.25;;
11614;SDS011;5863;52.832;4.758;2022-07-17T14:38:08;1.42;;;1.33;;
11614;SDS011;5863;52.832;4.758;2022-07-17T14:40:34;2.22;;;1.38;;
11614;SDS011;5863;52.832;4.758;2022-07-17T14:43:01;2.75;;;1.25;;
11614;SDS011;5863;52.832;4.758;2022-07-17T14:45:29;2.72;;;1.30;;
11614;SDS011;5863;52.832;4.758;2022-07-17T14:47:56;1.90;;;1.60;;
11614;SDS011;5863;52.832;4.758;2022-07-17T14:50:23;1.55;;;1.45;;
11614;SDS011;5863;52.832;4.758;2022-07-17T14:52:51;2.45;;;1.48;;
11614;SDS011;5863;52.832;4.758;2022-07-17T14:55:18;3.63;;;1.45;;
11614;SDS011;5863;52.832;4.758;2022-07-17T14:57:45;1.85;;;1.40;;
11614;SDS011;5863;52.832;4.758;2022-07-17T15:00:12;2.63;;;1.40;;
11614;SDS011;5863;52.832;4.758;2022-07-17T15:02:41;2.80;;;1.63;;
11614;SDS011;5863;52.832;4.758;2022-07-17T15:05:08;3.78;;;1.40;;
11614;SDS011;5863;52.832;4.758;2022-07-17T15:07:34;1.75;;;1.40;;